createdAt,value
2023-02-14T00:03:08.310Z,41.80
2023-02-14T00:08:09.755Z,44.20
2023-02-14T00:13:10.759Z,36.90
2023-02-14T00:19:23.666Z,36.50
2023-02-14T00:25:44.718Z,42.90
2023-02-14T00:31:05.965Z,35.80
2023-02-14T00:36:09.427Z,41.40
2023-02-14T00:41:18.504Z,35.10
2023-02-14T00:46:21.614Z,34.10
2023-02-14T00:51:23.236Z,34.30
2023-02-14T00:56:24.647Z,36.30
2023-02-14T01:01:26.204Z,31.70
2023-02-14T01:06:27.596Z,35.80
2023-02-14T01:12:31.078Z,40.20
2023-02-14T01:18:51.998Z,34.70
2023-02-14T01:25:12.916Z,37.90
2023-02-14T01:31:34.188Z,30.30
2023-02-14T01:38:05.354Z,36.40
2023-02-14T01:44:29.023Z,32.30
2023-02-14T01:50:50.053Z,36.00
2023-02-14T01:56:17.957Z,32.50
2023-02-14T02:01:20.091Z,32.10
2023-02-14T02:06:32.620Z,29.20
2023-02-14T02:11:34.302Z,27.80
2023-02-14T02:16:42.785Z,29.70
2023-02-14T02:22:12.280Z,29.80
2023-02-14T02:27:49.085Z,30.70
2023-02-14T02:33:31.756Z,32.60
2023-02-14T02:38:54.971Z,26.60
2023-02-14T02:44:29.441Z,29.00
2023-02-14T02:50:27.020Z,28.30
2023-02-14T02:56:02.704Z,27.60
2023-02-14T03:01:14.477Z,30.70
2023-02-14T03:06:15.778Z,29.00
2023-02-14T03:11:20.308Z,37.60
2023-02-14T03:16:34.983Z,33.80
2023-02-14T03:21:58.090Z,33.10
2023-02-14T03:27:14.800Z,34.60
2023-02-14T03:32:54.434Z,37.20
2023-02-14T03:38:18.924Z,34.20
2023-02-14T03:43:26.219Z,31.70
2023-02-14T03:48:29.095Z,34.60
2023-02-14T03:53:34.733Z,33.10
2023-02-14T03:58:46.880Z,30.80
2023-02-14T04:03:50.408Z,33.00
2023-02-14T04:08:51.785Z,34.30
2023-02-14T04:13:53.197Z,33.20
2023-02-14T04:19:13.284Z,34.50
2023-02-14T04:24:14.724Z,33.80
2023-02-14T04:29:16.012Z,32.70
2023-02-14T04:34:17.280Z,34.00
2023-02-14T04:39:18.561Z,31.90
2023-02-14T04:44:19.890Z,36.60
2023-02-14T04:49:21.152Z,31.80
2023-02-14T04:55:22.261Z,33.20
2023-02-14T05:01:43.310Z,36.90
2023-02-14T05:08:04.274Z,30.50
2023-02-14T05:14:25.432Z,35.60
2023-02-14T05:20:46.499Z,33.60
2023-02-14T05:27:07.412Z,31.60
2023-02-14T05:33:28.451Z,36.60
2023-02-14T05:39:49.495Z,38.60
2023-02-14T05:46:10.793Z,33.10
2023-02-14T05:52:41.766Z,33.90
2023-02-14T05:59:12.577Z,34.90
2023-02-14T06:05:33.450Z,32.60
2023-02-14T06:11:55.401Z,34.00
2023-02-14T06:18:29.408Z,34.30
2023-02-14T06:24:50.383Z,31.60
2023-02-14T06:30:46.452Z,31.70
2023-02-14T06:35:47.992Z,35.30
2023-02-14T06:40:49.276Z,31.60
2023-02-14T06:46:50.449Z,34.40
2023-02-14T06:53:11.470Z,37.40
2023-02-14T06:59:32.527Z,35.20
2023-02-14T07:06:03.615Z,33.40
2023-02-14T07:12:04.782Z,33.40
2023-02-14T07:18:25.683Z,32.20
2023-02-14T07:24:46.830Z,30.80
2023-02-14T07:31:08.100Z,32.10
2023-02-14T07:37:29.283Z,36.90
2023-02-14T07:43:56.023Z,30.00
2023-02-14T07:49:17.381Z,32.30
2023-02-14T07:54:20.266Z,33.00
2023-02-14T07:59:22.386Z,29.20
2023-02-14T08:04:25.596Z,29.70
2023-02-14T08:09:27.158Z,28.40
2023-02-14T08:14:28.737Z,32.20
2023-02-14T08:19:30.177Z,28.70
2023-02-14T08:24:31.565Z,39.50
2023-02-14T08:29:32.907Z,36.20
2023-02-14T08:34:34.241Z,34.30
2023-02-14T08:39:35.612Z,29.70
2023-02-14T08:44:36.865Z,34.40
2023-02-14T08:49:38.233Z,34.80
2023-02-14T08:54:39.402Z,34.50
2023-02-14T08:59:50.708Z,28.20
2023-02-14T09:04:52.016Z,37.20
2023-02-14T09:09:53.330Z,31.00
2023-02-14T09:14:54.918Z,28.20
2023-02-14T09:19:56.284Z,29.10
2023-02-14T09:24:57.619Z,28.20
2023-02-14T09:29:59.102Z,27.30
2023-02-14T09:35:19.126Z,25.60
2023-02-14T09:40:20.663Z,29.60
2023-02-14T09:45:26.876Z,27.60
2023-02-14T09:50:35.933Z,31.80
2023-02-14T09:55:46.756Z,24.60
2023-02-14T10:01:04.918Z,26.30
2023-02-14T10:06:32.476Z,27.40
2023-02-14T10:11:34.007Z,25.90
2023-02-14T10:16:56.991Z,24.70
2023-02-14T10:22:03.388Z,23.90
2023-02-14T10:27:23.230Z,23.10
2023-02-14T10:32:44.522Z,23.70
2023-02-14T10:38:54.680Z,23.50
2023-02-14T10:45:05.263Z,24.50
2023-02-14T10:51:09.229Z,25.40
2023-02-14T10:57:39.339Z,25.40
2023-02-14T11:04:30.983Z,22.90
2023-02-14T11:10:52.033Z,20.20
2023-02-14T11:17:12.973Z,24.40
2023-02-14T11:23:33.954Z,21.80
2023-02-14T11:29:14.587Z,26.40
2023-02-14T11:34:22.187Z,24.80
2023-02-14T11:39:34.564Z,26.40
2023-02-14T11:44:36.946Z,21.20
2023-02-14T11:49:38.189Z,21.40
2023-02-14T11:54:41.188Z,21.90
2023-02-14T11:59:50.217Z,19.60
2023-02-14T12:05:04.846Z,15.00
2023-02-14T12:10:19.451Z,12.60
2023-02-14T12:15:28.962Z,9.00
2023-02-14T12:20:48.850Z,13.50
2023-02-14T12:25:56.994Z,13.20
2023-02-14T12:30:58.571Z,11.30
2023-02-14T12:36:12.636Z,12.10
2023-02-14T12:41:24.072Z,15.80
2023-02-14T12:46:54.315Z,21.40
2023-02-14T12:52:07.878Z,18.90
2023-02-14T12:57:31.268Z,18.00
2023-02-14T13:02:54.675Z,19.70
2023-02-14T13:08:23.826Z,18.10
2023-02-14T13:13:47.890Z,14.40
2023-02-14T13:18:56.748Z,20.00
2023-02-14T13:24:22.981Z,17.80
2023-02-14T13:29:28.314Z,26.30
2023-02-14T13:34:31.864Z,20.70
2023-02-14T13:39:41.939Z,20.30
2023-02-14T13:44:49.366Z,20.10
2023-02-14T13:49:59.828Z,18.60
2023-02-14T13:55:05.772Z,20.30
2023-02-14T14:00:19.519Z,20.60
2023-02-14T14:05:29.930Z,19.20
2023-02-14T14:10:47.926Z,21.40
2023-02-14T14:21:27.113Z,18.90
2023-02-14T14:26:48.845Z,21.30
2023-02-14T14:32:50.023Z,20.70
2023-02-14T14:39:27.175Z,22.90
2023-02-14T14:46:03.641Z,20.00
2023-02-14T14:52:27.988Z,22.40
2023-02-14T14:58:48.977Z,21.20
2023-02-14T15:04:30.154Z,22.00
2023-02-14T15:09:34.593Z,22.00
2023-02-14T15:14:41.011Z,22.00
2023-02-14T15:19:47.213Z,23.00
2023-02-14T15:24:49.168Z,25.00
2023-02-14T15:30:20.281Z,25.80
2023-02-14T15:35:27.012Z,24.80
2023-02-14T15:40:31.341Z,26.40
2023-02-14T15:45:32.630Z,30.00
2023-02-14T15:50:36.039Z,30.20
2023-02-14T15:55:37.540Z,29.70
2023-02-14T16:00:41.966Z,34.70
2023-02-14T16:05:46.992Z,27.20
2023-02-14T16:11:09.361Z,28.80
2023-02-14T16:16:12.768Z,29.80
2023-02-14T16:21:23.142Z,37.00
2023-02-14T16:26:24.731Z,37.30
2023-02-14T16:31:26.401Z,37.80
2023-02-14T16:36:30.783Z,31.20
2023-02-14T16:41:35.920Z,31.10
2023-02-14T16:46:37.461Z,30.20
2023-02-14T16:51:42.752Z,31.20
2023-02-14T16:56:53.250Z,33.60
2023-02-14T17:01:54.665Z,31.60
2023-02-14T17:06:56.876Z,37.00
2023-02-14T17:12:05.281Z,40.70
2023-02-14T17:17:06.703Z,39.10
2023-02-14T17:22:08.451Z,43.50
2023-02-14T17:27:09.862Z,43.70
2023-02-14T17:32:13.632Z,49.30
2023-02-14T17:37:15.141Z,48.30
2023-02-14T17:42:16.718Z,56.70
2023-02-14T17:47:17.894Z,55.00
2023-02-14T17:52:21.265Z,49.80
2023-02-14T17:57:22.570Z,44.80
2023-02-14T18:02:27.958Z,44.80
2023-02-14T18:07:29.294Z,45.80
2023-02-14T18:12:30.554Z,45.60
2023-02-14T18:17:31.787Z,46.80
2023-02-14T18:22:33.060Z,48.70
2023-02-14T18:27:34.334Z,55.10
2023-02-14T18:32:35.565Z,53.20
2023-02-14T18:37:37.202Z,50.80
2023-02-14T18:42:38.811Z,52.30
2023-02-14T18:48:03.857Z,43.00
2023-02-14T18:54:10.664Z,51.00
2023-02-14T19:00:35.626Z,49.60
2023-02-14T19:07:20.788Z,53.50
2023-02-14T19:14:02.202Z,54.50
2023-02-14T19:20:44.067Z,57.30
2023-02-14T19:27:17.936Z,58.70
2023-02-14T19:33:37.296Z,52.90
2023-02-14T19:39:45.172Z,52.90
2023-02-14T19:46:01.895Z,49.50
2023-02-14T19:52:17.201Z,50.40
2023-02-14T19:57:57.427Z,45.50
2023-02-14T20:04:23.292Z,46.90
2023-02-14T20:10:32.587Z,46.60
2023-02-14T20:16:13.239Z,49.70
2023-02-14T20:22:32.318Z,48.30
2023-02-14T20:29:14.216Z,54.10
2023-02-14T20:35:22.204Z,49.70
2023-02-14T20:47:24.127Z,55.80
2023-02-14T20:52:57.184Z,53.50
2023-02-14T20:58:16.425Z,64.80
2023-02-14T21:03:31.842Z,63.00
2023-02-14T21:09:35.745Z,60.40
2023-02-14T21:16:18.057Z,61.00
2023-02-14T21:23:11.740Z,66.50
2023-02-14T21:30:14.311Z,56.90
2023-02-14T21:36:23.087Z,76.40
2023-02-14T21:42:26.244Z,79.10
2023-02-14T21:49:01.959Z,86.40
2023-02-14T21:56:04.485Z,79.00
2023-02-14T22:02:52.395Z,64.50
2023-02-14T22:09:18.967Z,61.40
2023-02-14T22:15:54.353Z,63.20
2023-02-14T22:22:38.608Z,58.30
2023-02-14T22:29:23.094Z,55.30
2023-02-14T22:35:47.918Z,60.90
2023-02-14T22:42:09.288Z,61.80
2023-02-14T22:48:40.958Z,77.50
2023-02-14T22:55:12.957Z,62.20
2023-02-14T23:00:54.023Z,39.60
2023-02-14T23:07:03.504Z,43.40
2023-02-14T23:13:19.727Z,38.90
2023-02-14T23:19:55.348Z,54.30
2023-02-14T23:26:26.282Z,60.10
2023-02-14T23:33:10.835Z,35.80
2023-02-14T23:39:52.872Z,35.20
2023-02-14T23:46:18.177Z,42.60
2023-02-14T23:53:01.697Z,41.30
2023-02-14T23:59:23.940Z,39.70
